Time;durP1;ratioP1;P1;durP2;ratioP2;P2;SDS_P1;SDS_P2;PMS_P1;PMS_P2;Temp;Humidity;BMP_temperature;BMP_pressure;BME280_temperature;BME280_humidity;BME280_pressure;Samples;Min_cycle;Max_cycle;Signal;HPM_P1;HPM_P2
2022/12/23 00:01:28;;;;;;;;;;;;;;;5.09;100.00;100181.78;5060830;28;19942;-76
2022/12/23 00:03:58;;;;;;;;;;;;;;;5.08;100.00;100195.81;5042963;28;19924;-76
2022/12/23 00:06:23;;;;;;;;;;;;;;;5.09;100.00;100196.66;5061619;28;20376;-75
2022/12/23 00:08:56;;;;;;;;;;;;;;;5.07;100.00;100198.50;5043706;28;19935;-75
2022/12/23 00:11:22;;;;;;;;;;;;;;;5.05;100.00;100195.06;5062132;28;19932;-75
2022/12/23 00:16:34;;;;;;;;;;;;;;;4.97;100.00;100206.63;5063592;28;19932;-75
2022/12/23 00:18:59;;;;;;;;;;;;;;;4.97;100.00;100216.28;5064320;28;19959;-75
2022/12/23 00:21:24;;;;;;;;;;;;;;;4.97;100.00;100217.13;5061620;28;20027;-75
2022/12/23 00:23:50;;;;;;;;;;;;;;;4.98;100.00;100218.00;5063125;28;19924;-75
2022/12/23 00:26:16;;;;;;;;;;;;;;;5.00;100.00;100226.66;5063895;28;19932;-75
2022/12/23 00:28:42;;;;;;;;;;;;;;;5.03;100.00;100229.22;5063782;28;20011;-75
2022/12/23 00:31:08;;;;;;;;;;;;;;;5.06;100.00;100234.34;5043304;28;19976;-75
2022/12/23 00:33:34;;;;;;;;;;;;;;;5.08;100.00;100229.94;5063599;28;19928;-75
2022/12/23 00:36:00;;;;;;;;;;;;;;;5.10;100.00;100235.97;5044183;28;20050;-76
2022/12/23 00:43:55;;;;;;;;;;;;;;;5.11;100.00;100239.44;5047190;28;19924;-75
2022/12/23 00:46:20;;;;;;;;;;;;;;;5.12;100.00;100249.06;5038644;28;20512;-75
2022/12/23 00:51:30;;;;;;;;;;;;;;;5.16;100.00;100255.91;5048536;28;20029;-75
2022/12/23 00:53:55;;;;;;;;;;;;;;;5.17;100.00;100262.88;5063439;28;19975;-75
2022/12/23 00:56:20;;;;;;;;;;;;;;;5.19;100.00;100261.06;5063871;28;19939;-75
2022/12/23 00:58:46;;;;;;;;;;;;;;;5.21;100.00;100259.25;5037445;28;19947;-75
2022/12/23 01:06:39;;;;;;;;;;;;;;;5.25;100.00;100262.63;5067241;28;19935;-76
2022/12/23 01:09:05;;;;;;;;;;;;;;;5.24;100.00;100263.53;5065104;28;19928;-76
2022/12/23 01:11:30;;;;;;;;;;;;;;;5.26;100.00;100264.34;5066758;28;20034;-76
2022/12/23 01:13:57;;;;;;;;;;;;;;;5.26;100.00;100257.34;5065915;28;19924;-76
2022/12/23 01:16:22;;;;;;;;;;;;;;;5.28;100.00;100267.75;5048912;28;20027;-75
2022/12/23 01:18:47;;;;;;;;;;;;;;;5.29;100.00;100277.38;5066687;28;19934;-76
2022/12/23 01:21:13;;;;;;;;;;;;;;;5.30;100.00;100285.19;5066700;28;19937;-76
2022/12/23 01:23:38;;;;;;;;;;;;;;;5.32;100.00;100281.69;5067467;28;19931;-75
2022/12/23 01:26:05;;;;;;;;;;;;;;;5.31;100.00;100286.06;5064450;28;20367;-76
2022/12/23 01:28:31;;;;;;;;;;;;;;;5.34;100.00;100292.97;5067038;28;19935;-76
2022/12/23 01:30:56;;;;;;;;;;;;;;;5.33;100.00;100299.16;5066174;28;20493;-76
2022/12/23 01:33:25;;;;;;;;;;;;;;;5.34;100.00;100298.22;5056337;28;19959;-76
2022/12/23 01:35:50;;;;;;;;;;;;;;;5.36;100.00;100305.16;5063880;28;21078;-76
2022/12/23 01:38:15;;;;;;;;;;;;;;;5.37;100.00;100304.25;5032320;28;20395;-75
2022/12/23 01:40:42;;;;;;;;;;;;;;;5.40;100.00;100316.41;5066638;28;19963;-76
2022/12/23 01:43:14;;;;;;;;;;;;;;;5.42;100.00;100319.84;5050530;28;19929;-76
2022/12/23 01:45:40;;;;;;;;;;;;;;;5.41;100.00;100321.59;5064966;28;20375;-76
2022/12/23 01:48:08;;;;;;;;;;;;;;;5.44;100.00;100325.88;5064554;28;19936;-75
2022/12/23 01:50:35;;;;;;;;;;;;;;;5.44;100.00;100333.75;5064974;28;19954;-76
2022/12/23 01:53:13;;;;;;;;;;;;;;;5.44;100.00;100333.75;5048845;28;19928;-76
2022/12/23 01:55:43;;;;;;;;;;;;;;;5.44;100.00;100342.50;5062864;28;20011;-76
2022/12/23 01:58:23;;;;;;;;;;;;;;;5.46;100.00;100334.59;5062372;28;19924;-76
2022/12/23 02:03:43;;;;;;;;;;;;;;;5.48;100.00;100340.66;5046126;28;20325;-76
2022/12/23 02:09:16;;;;;;;;;;;;;;;5.49;100.00;100347.63;5062268;28;19928;-76
2022/12/23 02:11:51;;;;;;;;;;;;;;;5.51;100.00;100352.81;5062885;28;19928;-77
2022/12/23 02:17:21;;;;;;;;;;;;;;;5.50;100.00;100357.19;5061033;28;19934;-77
2022/12/23 02:20:05;;;;;;;;;;;;;;;5.51;100.00;100348.41;5063013;28;19929;-76
2022/12/23 02:22:36;;;;;;;;;;;;;;;5.52;100.00;100357.16;5064183;28;19928;-76
2022/12/23 02:25:01;;;;;;;;;;;;;;;5.52;100.00;100349.28;5062128;28;20984;-76
2022/12/23 02:27:31;;;;;;;;;;;;;;;5.53;100.00;100354.50;5060388;28;19924;-76
2022/12/23 02:30:19;;;;;;;;;;;;;;;5.52;100.00;100354.53;5047335;28;19940;-76
2022/12/23 02:32:47;;;;;;;;;;;;;;;5.52;100.00;100346.66;5044850;28;19986;-76
2022/12/23 02:35:14;;;;;;;;;;;;;;;5.51;100.00;100345.78;5065065;28;19977;-76
2022/12/23 02:37:44;;;;;;;;;;;;;;;5.51;100.00;100353.66;5043243;28;20255;-77
2022/12/23 02:40:11;;;;;;;;;;;;;;;5.52;100.00;100344.91;5052268;28;21528;-76
2022/12/23 02:42:43;;;;;;;;;;;;;;;5.53;100.00;100353.63;5030747;28;19924;-77
2022/12/23 02:45:16;;;;;;;;;;;;;;;5.53;100.00;100358.88;5051067;28;19969;-78
2022/12/23 02:47:43;;;;;;;;;;;;;;;5.50;100.00;100359.81;5062594;28;19924;-76
2022/12/23 02:50:10;;;;;;;;;;;;;;;5.49;100.00;100366.00;5042148;28;20378;-75
2022/12/23 02:52:36;;;;;;;;;;;;;;;5.48;100.00;100377.41;5044355;28;19928;-76
2022/12/23 02:55:03;;;;;;;;;;;;;;;5.46;100.00;100388.88;5038413;28;20356;-76
2022/12/23 02:57:31;;;;;;;;;;;;;;;5.43;100.00;100385.44;5064551;28;20007;-75
2022/12/23 02:59:56;;;;;;;;;;;;;;;5.43;100.00;100384.56;5044521;28;19928;-76
2022/12/23 03:02:22;;;;;;;;;;;;;;;5.41;100.00;100379.34;5063890;28;19935;-75
2022/12/23 03:04:47;;;;;;;;;;;;;;;5.39;100.00;100391.69;5064575;28;20150;-74
2022/12/23 03:07:32;;;;;;;;;;;;;;;5.38;100.00;100386.47;5065503;28;19935;-74
2022/12/23 03:10:09;;;;;;;;;;;;;;;5.35;100.00;100386.56;5064979;28;20022;-75
2022/12/23 03:12:41;;;;;;;;;;;;;;;5.35;100.00;100391.81;5035037;28;20363;-76
2022/12/23 03:15:09;;;;;;;;;;;;;;;5.34;100.00;100395.34;5064153;28;20389;-75
2022/12/23 03:17:53;;;;;;;;;;;;;;;5.34;100.00;100403.25;5062364;28;19928;-76
2022/12/23 03:20:34;;;;;;;;;;;;;;;5.33;100.00;100404.16;5064774;28;20391;-75
2022/12/23 03:23:06;;;;;;;;;;;;;;;5.32;100.00;100407.69;5044008;28;19924;-76
2022/12/23 03:25:36;;;;;;;;;;;;;;;5.29;100.00;100408.63;5040327;28;19928;-76
2022/12/23 03:28:07;;;;;;;;;;;;;;;5.26;100.00;100403.47;5062542;28;19924;-76
2022/12/23 03:30:32;;;;;;;;;;;;;;;5.24;100.00;100406.13;5061668;28;20818;-76
2022/12/23 03:33:00;;;;;;;;;;;;;;;5.22;100.00;100415.81;5061096;28;19944;-76
2022/12/23 03:35:27;;;;;;;;;;;;;;;5.20;100.00;100409.75;5042764;28;19928;-76
2022/12/23 03:37:52;;;;;;;;;;;;;;;5.21;100.00;100421.09;5042300;28;19981;-76
2022/12/23 03:40:25;;;;;;;;;;;;;;;5.18;100.00;100424.72;5063698;28;19932;-76
2022/12/23 03:42:53;;;;;;;;;;;;;;;5.19;100.00;100428.19;5058045;28;19928;-75
2022/12/23 03:45:20;;;;;;;;;;;;;;;5.18;100.00;100427.34;5037824;28;19946;-75
2022/12/23 03:47:47;;;;;;;;;;;;;;;5.18;100.00;100423.84;5041310;28;20011;-75
2022/12/23 03:50:13;;;;;;;;;;;;;;;5.16;100.00;100424.75;5043922;28;20551;-76
2022/12/23 03:52:45;;;;;;;;;;;;;;;5.16;100.00;100429.13;5061304;28;20398;-75
2022/12/23 03:55:13;;;;;;;;;;;;;;;5.15;100.00;100422.16;5060664;28;19928;-75
2022/12/23 03:58:11;;;;;;;;;;;;;;;5.15;100.00;100423.03;5045632;28;19971;-76
2022/12/23 04:00:38;;;;;;;;;;;;;;;5.14;100.00;100426.53;5015357;28;20023;-75
2022/12/23 04:03:22;;;;;;;;;;;;;;;5.14;100.00;100428.31;5042200;28;19936;-75
2022/12/23 04:05:56;;;;;;;;;;;;;;;5.13;100.00;100429.22;5062268;28;20279;-75
2022/12/23 04:08:34;;;;;;;;;;;;;;;5.12;100.00;100443.25;5023662;28;19967;-75
2022/12/23 04:11:00;;;;;;;;;;;;;;;5.10;100.00;100435.41;5042060;28;19924;-76
2022/12/23 04:13:26;;;;;;;;;;;;;;;5.09;100.00;100433.72;5043086;28;20393;-76
2022/12/23 04:15:51;;;;;;;;;;;;;;;5.08;100.00;100434.63;5005927;28;19960;-76
2022/12/23 04:18:17;;;;;;;;;;;;;;;5.08;100.00;100428.50;5041749;28;20527;-75
2022/12/23 04:20:42;;;;;;;;;;;;;;;5.07;100.00;100434.66;5061936;28;20395;-76
2022/12/23 04:23:07;;;;;;;;;;;;;;;5.05;100.00;100436.47;5060836;28;19928;-75
2022/12/23 04:25:33;;;;;;;;;;;;;;;5.01;100.00;100441.78;5061450;28;19979;-75
2022/12/23 04:27:58;;;;;;;;;;;;;;;4.98;100.00;100436.66;5060719;28;20391;-75
2022/12/23 04:30:24;;;;;;;;;;;;;;;4.96;100.00;100438.44;5064818;28;20280;-75
2022/12/23 04:32:49;;;;;;;;;;;;;;;4.96;100.00;100448.09;5063828;28;19928;-75
2022/12/23 04:35:15;;;;;;;;;;;;;;;4.95;100.00;100459.47;5067588;28;20065;-74
2022/12/23 04:37:40;;;;;;;;;;;;;;;4.93;100.00;100454.28;5067474;28;19931;-75
2022/12/23 04:40:06;;;;;;;;;;;;;;;4.92;100.00;100459.56;5015092;28;19924;-74
2022/12/23 04:42:32;;;;;;;;;;;;;;;4.91;100.00;100456.09;5067967;28;20084;-74
2022/12/23 04:44:57;;;;;;;;;;;;;;;4.90;100.00;100459.59;5067534;28;19932;-75
2022/12/23 04:47:22;;;;;;;;;;;;;;;4.91;100.00;100460.47;5045214;28;19932;-75
2022/12/23 04:49:48;;;;;;;;;;;;;;;4.89;100.00;100453.50;5047650;28;19935;-75
2022/12/23 04:52:13;;;;;;;;;;;;;;;4.89;100.00;100450.00;5066719;28;19938;-75
2022/12/23 04:54:39;;;;;;;;;;;;;;;4.89;100.00;100455.25;5067655;28;19932;-74
2022/12/23 04:57:04;;;;;;;;;;;;;;;4.88;100.00;100456.16;5047600;28;19936;-75
2022/12/23 04:59:30;;;;;;;;;;;;;;;4.88;100.00;100466.66;5064942;28;20005;-76
2022/12/23 05:01:55;;;;;;;;;;;;;;;4.88;100.00;100456.16;5066665;28;19928;-76
2022/12/23 05:04:21;;;;;;;;;;;;;;;4.88;100.00;100464.03;5067159;28;21497;-75
2022/12/23 05:06:46;;;;;;;;;;;;;;;4.87;100.00;100464.94;5064903;28;19932;-76
2022/12/23 05:09:12;;;;;;;;;;;;;;;4.87;100.00;100462.31;5046958;28;22107;-76
2022/12/23 05:11:37;;;;;;;;;;;;;;;4.86;100.00;100468.47;5065832;28;20422;-76
2022/12/23 05:14:02;;;;;;;;;;;;;;;4.86;100.00;100471.09;5065291;28;19955;-76
2022/12/23 05:16:30;;;;;;;;;;;;;;;4.87;100.00;100465.81;5063640;28;20652;-76
2022/12/23 05:18:55;;;;;;;;;;;;;;;4.87;100.00;100467.56;5061063;28;20329;-76
2022/12/23 05:21:20;;;;;;;;;;;;;;;4.87;100.00;100470.19;5065650;28;19924;-76
2022/12/23 05:23:46;;;;;;;;;;;;;;;4.86;100.00;100460.59;5050046;28;19947;-76
2022/12/23 05:26:11;;;;;;;;;;;;;;;4.86;100.00;100460.59;5065496;28;19924;-76
2022/12/23 05:28:37;;;;;;;;;;;;;;;4.86;100.00;100463.22;5063753;28;20324;-75
2022/12/23 05:31:03;;;;;;;;;;;;;;;4.85;100.00;100466.75;5063541;28;20031;-76
2022/12/23 05:33:29;;;;;;;;;;;;;;;4.83;100.00;100468.53;5065011;28;19924;-76
2022/12/23 05:35:55;;;;;;;;;;;;;;;4.83;100.00;100479.03;5063570;28;19935;-76
2022/12/23 05:38:20;;;;;;;;;;;;;;;4.82;100.00;100472.06;5062839;28;19943;-76
2022/12/23 05:40:46;;;;;;;;;;;;;;;4.81;100.00;100458.09;5062974;28;19932;-76
2022/12/23 05:43:11;;;;;;;;;;;;;;;4.81;100.00;100459.84;5063338;28;20560;-76
2022/12/23 05:45:36;;;;;;;;;;;;;;;4.81;100.00;100467.72;5064828;28;19939;-74
2022/12/23 05:48:02;;;;;;;;;;;;;;;4.81;100.00;100465.09;5047739;28;19936;-74
2022/12/23 05:50:27;;;;;;;;;;;;;;;4.82;100.00;100461.56;5026810;28;19928;-75
2022/12/23 05:52:56;;;;;;;;;;;;;;;4.81;100.00;100459.84;5061839;28;20021;-76
2022/12/23 05:55:22;;;;;;;;;;;;;;;4.81;100.00;100470.34;5064255;28;20063;-74
2022/12/23 05:57:48;;;;;;;;;;;;;;;4.79;100.00;100470.38;5049949;28;19928;-75
2022/12/23 06:00:13;;;;;;;;;;;;;;;4.78;100.00;100471.28;5058521;28;20308;-75
2022/12/23 06:02:39;;;;;;;;;;;;;;;4.78;100.00;100470.44;5061099;28;19925;-75
2022/12/23 06:05:04;;;;;;;;;;;;;;;4.76;100.00;100478.34;5044175;28;20489;-75
2022/12/23 06:07:30;;;;;;;;;;;;;;;4.74;100.00;100477.53;5066518;28;19951;-75
2022/12/23 06:09:55;;;;;;;;;;;;;;;4.74;100.00;100481.00;5065123;28;20364;-74
2022/12/23 06:12:20;;;;;;;;;;;;;;;4.74;100.00;100480.16;5064338;28;20352;-75
2022/12/23 06:14:46;;;;;;;;;;;;;;;4.73;100.00;100488.91;5065893;28;19976;-75
2022/12/23 06:17:11;;;;;;;;;;;;;;;4.74;100.00;100488.88;5062371;28;19928;-75
2022/12/23 06:19:36;;;;;;;;;;;;;;;4.74;100.00;100488.88;5063089;28;19935;-75
2022/12/23 06:22:02;;;;;;;;;;;;;;;4.74;100.00;100486.25;5065547;28;19990;-75
2022/12/23 06:24:27;;;;;;;;;;;;;;;4.75;100.00;100497.63;5065491;28;20387;-75
2022/12/23 06:26:52;;;;;;;;;;;;;;;4.74;100.00;100501.97;5065896;28;20379;-75
2022/12/23 06:29:20;;;;;;;;;;;;;;;4.74;100.00;100504.59;5063039;28;19955;-75
2022/12/23 06:31:46;;;;;;;;;;;;;;;4.75;100.00;100505.47;5046065;28;19957;-75
2022/12/23 06:34:11;;;;;;;;;;;;;;;4.75;100.00;100513.34;5062434;28;19924;-75
2022/12/23 06:36:36;;;;;;;;;;;;;;;4.75;100.00;100514.19;5045448;28;20011;-75
2022/12/23 06:39:02;;;;;;;;;;;;;;;4.74;100.00;100515.09;5063667;28;20013;-75
2022/12/23 06:41:27;;;;;;;;;;;;;;;4.74;100.00;100509.84;5044614;28;19944;-76
2022/12/23 06:43:52;;;;;;;;;;;;;;;4.74;100.00;100517.72;5065164;28;20356;-75
2022/12/23 06:46:18;;;;;;;;;;;;;;;4.73;100.00;100526.50;5064988;28;19989;-76
2022/12/23 06:48:43;;;;;;;;;;;;;;;4.75;100.00;100529.09;5043673;28;19979;-75
2022/12/23 06:51:10;;;;;;;;;;;;;;;4.74;100.00;100533.47;5061452;28;20003;-75
2022/12/23 06:53:35;;;;;;;;;;;;;;;4.74;100.00;100540.47;5065229;28;19939;-75
2022/12/23 06:56:01;;;;;;;;;;;;;;;4.73;100.00;100542.22;5064195;28;20468;-75
2022/12/23 06:58:26;;;;;;;;;;;;;;;4.74;100.00;100546.56;5038558;28;19927;-75
2022/12/23 07:00:52;;;;;;;;;;;;;;;4.74;100.00;100541.31;5052010;28;19933;-75
2022/12/23 07:03:17;;;;;;;;;;;;;;;4.75;100.00;100550.06;5063940;28;20421;-75
2022/12/23 07:05:48;;;;;;;;;;;;;;;4.76;100.00;100557.88;5043494;28;20212;-75
2022/12/23 07:08:13;;;;;;;;;;;;;;;4.77;100.00;100553.50;5044025;28;19924;-75
2022/12/23 07:10:39;;;;;;;;;;;;;;;4.76;100.00;100557.88;5044312;28;20418;-75
2022/12/23 07:13:04;;;;;;;;;;;;;;;4.76;100.00;100563.13;5044395;28;19982;-75
2022/12/23 07:15:29;;;;;;;;;;;;;;;4.75;100.00;100566.66;5064652;28;20023;-75
2022/12/23 07:17:55;;;;;;;;;;;;;;;4.78;100.00;100564.88;5043066;28;19938;-75
2022/12/23 07:20:20;;;;;;;;;;;;;;;4.78;100.00;100560.47;5063081;28;19967;-75
2022/12/23 07:22:46;;;;;;;;;;;;;;;4.77;100.00;100553.50;5029931;28;21602;-75
2022/12/23 07:25:11;;;;;;;;;;;;;;;4.79;100.00;100553.47;5064444;28;19928;-75
2022/12/23 07:27:37;;;;;;;;;;;;;;;4.80;100.00;100560.44;5065264;28;19932;-75
2022/12/23 07:30:02;;;;;;;;;;;;;;;4.80;100.00;100573.56;5064140;28;20009;-75
2022/12/23 07:32:28;;;;;;;;;;;;;;;4.81;100.00;100581.38;5026941;28;19928;-75
2022/12/23 07:34:53;;;;;;;;;;;;;;;4.82;100.00;100583.09;5061167;28;19939;-75
2022/12/23 07:37:18;;;;;;;;;;;;;;;4.83;100.00;100576.09;5061994;28;19940;-74
2022/12/23 07:39:44;;;;;;;;;;;;;;;4.83;100.00;100571.72;5063719;28;19928;-75
2022/12/23 07:42:09;;;;;;;;;;;;;;;4.84;100.00;100581.28;5058708;28;20399;-75
2022/12/23 07:44:34;;;;;;;;;;;;;;;4.85;100.00;100574.31;5062075;28;19955;-75
2022/12/23 07:47:00;;;;;;;;;;;;;;;4.85;100.00;100574.31;5057535;28;19969;-75
2022/12/23 07:49:25;;;;;;;;;;;;;;;4.86;100.00;100578.66;5033777;28;21402;-75
2022/12/23 07:51:51;;;;;;;;;;;;;;;4.87;100.00;100577.72;5059507;28;19928;-75
2022/12/23 07:54:16;;;;;;;;;;;;;;;4.88;100.00;100571.59;5057007;28;20378;-75
2022/12/23 07:56:41;;;;;;;;;;;;;;;4.88;100.00;100556.72;5056531;28;19932;-75
2022/12/23 07:59:07;;;;;;;;;;;;;;;4.89;100.00;100557.56;5056295;28;19927;-75
2022/12/23 08:01:32;;;;;;;;;;;;;;;4.90;100.00;100551.41;5057135;28;20441;-73
2022/12/23 08:03:58;;;;;;;;;;;;;;;4.89;100.00;100547.06;5045062;28;19928;-73
2022/12/23 08:06:23;;;;;;;;;;;;;;;4.90;100.00;100540.91;5058984;28;19932;-73
2022/12/23 08:08:48;;;;;;;;;;;;;;;4.91;100.00;100533.91;5052509;28;19960;-74
2022/12/23 08:11:14;;;;;;;;;;;;;;;4.90;100.00;100533.03;5062022;28;19925;-74
2022/12/23 08:13:40;;;;;;;;;;;;;;;4.89;100.00;100536.56;5064284;28;19971;-74
2022/12/23 08:16:06;;;;;;;;;;;;;;;4.86;100.00;100541.91;5042933;28;20384;-74
2022/12/23 08:18:32;;;;;;;;;;;;;;;4.85;100.00;100548.06;5030624;28;19928;-73
2022/12/23 08:20:59;;;;;;;;;;;;;;;4.86;100.00;100548.00;5043199;28;19970;-73
2022/12/23 08:23:24;;;;;;;;;;;;;;;4.85;100.00;100548.06;5061715;28;20087;-74
2022/12/23 08:25:57;;;;;;;;;;;;;;;4.84;100.00;100555.06;5029035;28;19924;-73
2022/12/23 08:28:23;;;;;;;;;;;;;;;4.82;100.00;100548.13;5042899;28;20157;-73
2022/12/23 08:30:48;;;;;;;;;;;;;;;4.82;100.00;100551.63;5043369;28;20121;-73
2022/12/23 08:33:13;;;;;;;;;;;;;;;4.81;100.00;100556.91;5062042;28;19939;-73
2022/12/23 08:35:39;;;;;;;;;;;;;;;4.81;100.00;100554.28;5063674;28;22400;-73
2022/12/23 08:38:04;;;;;;;;;;;;;;;4.82;100.00;100554.25;5062513;28;19954;-73
2022/12/23 08:40:29;;;;;;;;;;;;;;;4.82;100.00;100551.63;5040264;28;20435;-75
2022/12/23 08:42:55;;;;;;;;;;;;;;;4.84;100.00;100556.81;5057589;28;20616;-73
2022/12/23 08:45:20;;;;;;;;;;;;;;;4.86;100.00;100555.03;5062253;28;19932;-74
2022/12/23 08:47:46;;;;;;;;;;;;;;;4.88;100.00;100556.72;5059490;28;20021;-74
2022/12/23 08:50:11;;;;;;;;;;;;;;;4.90;100.00;100543.53;5058453;28;20075;-73
2022/12/23 08:52:37;;;;;;;;;;;;;;;4.90;100.00;100538.28;5061136;28;19932;-73
2022/12/23 08:55:02;;;;;;;;;;;;;;;4.91;100.00;100533.91;5063858;28;19971;-73
2022/12/23 08:57:28;;;;;;;;;;;;;;;4.92;100.00;100535.63;5061240;28;20501;-73
2022/12/23 08:59:53;;;;;;;;;;;;;;;4.92;100.00;100536.50;5046981;28;19962;-73
2022/12/23 09:02:18;;;;;;;;;;;;;;;4.93;100.00;100532.09;5063061;28;20554;-73
2022/12/23 09:04:44;;;;;;;;;;;;;;;4.94;100.00;100531.19;5057664;28;20054;-73
2022/12/23 09:07:09;;;;;;;;;;;;;;;4.93;100.00;100522.47;5060977;28;19938;-73
2022/12/23 09:09:36;;;;;;;;;;;;;;;4.92;100.00;100515.53;5059667;28;20062;-73
2022/12/23 09:12:01;;;;;;;;;;;;;;;4.91;100.00;100524.28;5059995;28;19947;-73
2022/12/23 09:14:26;;;;;;;;;;;;;;;4.90;100.00;100519.94;5058202;28;19971;-73
2022/12/23 09:16:52;;;;;;;;;;;;;;;4.92;100.00;100518.16;5062916;28;19935;-74
2022/12/23 09:19:17;;;;;;;;;;;;;;;4.93;100.00;100508.50;5059611;28;19968;-74
2022/12/23 09:21:43;;;;;;;;;;;;;;;4.93;100.00;100512.00;5062209;28;19936;-74
2022/12/23 09:24:08;;;;;;;;;;;;;;;4.93;100.00;100512.00;5042446;28;20026;-71
2022/12/23 09:26:34;;;;;;;;;;;;;;;4.94;100.00;100511.09;5057819;28;20018;-74
2022/12/23 09:28:59;;;;;;;;;;;;;;;4.96;100.00;100505.81;5055856;28;19936;-72
2022/12/23 09:31:25;;;;;;;;;;;;;;;4.96;100.00;100504.03;5058489;28;19932;-72
2022/12/23 09:33:51;;;;;;;;;;;;;;;4.96;100.00;100498.78;5022272;28;19950;-72
2022/12/23 09:36:17;;;;;;;;;;;;;;;4.95;100.00;100493.59;5038523;28;20394;-73
2022/12/23 09:38:42;;;;;;;;;;;;;;;4.92;100.00;100491.03;5060781;28;20436;-73
2022/12/23 09:41:14;;;;;;;;;;;;;;;4.91;100.00;100495.44;5057536;28;19928;-73
2022/12/23 09:43:54;;;;;;;;;;;;;;;4.93;100.00;100491.00;5040403;28;20017;-73
2022/12/23 09:46:20;;;;;;;;;;;;;;;4.97;100.00;100487.38;5040077;28;20327;-73
2022/12/23 09:49:09;;;;;;;;;;;;;;;5.02;100.00;100490.72;5053221;28;20077;-73
2022/12/23 09:51:34;;;;;;;;;;;;;;;5.09;100.00;100490.56;5047013;28;19928;-72
2022/12/23 09:54:12;;;;;;;;;;;;;;;5.14;100.00;100493.94;5043438;28;19931;-73
2022/12/23 09:56:46;;;;;;;;;;;;;;;5.16;100.00;100492.09;5059727;28;20363;-72
2022/12/23 09:59:17;;;;;;;;;;;;;;;5.21;100.00;100491.97;5042347;28;19952;-72
2022/12/23 10:01:43;;;;;;;;;;;;;;;5.24;100.00;100498.00;5058759;28;19933;-72
2022/12/23 10:04:08;;;;;;;;;;;;;;;5.26;100.00;100496.22;5057937;28;19928;-72
2022/12/23 10:06:34;;;;;;;;;;;;;;;5.28;100.00;100497.00;5057621;28;19928;-72
2022/12/23 10:09:00;;;;;;;;;;;;;;;5.32;100.00;100492.53;5060955;28;19920;-72
2022/12/23 10:11:26;;;;;;;;;;;;;;;5.35;100.00;100492.47;5034905;28;20529;-72
2022/12/23 10:13:55;;;;;;;;;;;;;;;5.38;100.00;100487.09;5039884;28;19924;-72
2022/12/23 10:16:25;;;;;;;;;;;;;;;5.41;100.00;100488.78;5036351;28;19950;-73
2022/12/23 10:19:10;;;;;;;;;;;;;;;5.45;100.00;100485.13;5038026;28;20330;-72
2022/12/23 10:21:35;;;;;;;;;;;;;;;5.49;100.00;100478.91;5020336;28;19977;-72
2022/12/23 10:24:02;;;;;;;;;;;;;;;5.51;100.00;100469.22;5038929;28;19991;-72
2022/12/23 10:26:31;;;;;;;;;;;;;;;5.54;100.00;100465.63;5036519;28;19939;-72
2022/12/23 10:28:59;;;;;;;;;;;;;;;5.56;100.00;100456.81;5040258;28;19998;-73
2022/12/23 10:31:35;;;;;;;;;;;;;;;5.60;100.00;100456.72;5034989;28;22119;-74
2022/12/23 10:34:03;;;;;;;;;;;;;;;5.61;100.00;100458.44;5034331;28;19924;-73
2022/12/23 10:36:44;;;;;;;;;;;;;;;5.64;100.00;100460.97;5033925;28;19924;-73
2022/12/23 10:39:20;;;;;;;;;;;;;;;5.65;100.00;100453.03;5033401;28;19963;-73
2022/12/23 10:41:51;;;;;;;;;;;;;;;5.66;100.00;100448.66;5022491;28;20020;-73
2022/12/23 10:44:22;;;;;;;;;;;;;;;5.66;100.00;100441.63;5039217;28;20658;-73
2022/12/23 10:47:17;;;;;;;;;;;;;;;5.68;100.00;100446.84;4921817;27;5051647;-73
2022/12/23 10:50:02;;;;;;;;;;;;;;;5.70;100.00;100442.38;5060286;28;19930;-73
2022/12/23 10:52:28;;;;;;;;;;;;;;;5.69;100.00;100438.91;5091419;28;21615;-73
2022/12/23 10:54:53;;;;;;;;;;;;;;;5.68;100.00;100433.69;5075327;28;19947;-72
2022/12/23 10:57:19;;;;;;;;;;;;;;;5.68;100.00;100425.81;5058604;28;19928;-72
2022/12/23 10:59:44;;;;;;;;;;;;;;;5.67;100.00;100424.09;5074795;28;20438;-72
2022/12/23 11:02:10;;;;;;;;;;;;;;;5.65;100.00;100415.41;5058289;28;19928;-73
2022/12/23 11:04:36;;;;;;;;;;;;;;;5.63;100.00;100402.34;5072068;28;20019;-74
2022/12/23 11:07:02;;;;;;;;;;;;;;;5.64;100.00;100408.44;5047877;28;19924;-73
2022/12/23 11:09:32;;;;;;;;;;;;;;;5.63;100.00;100404.97;5075404;28;19930;-72
2022/12/23 11:11:59;;;;;;;;;;;;;;;5.65;100.00;100389.13;5065466;27;20038;-72
2022/12/23 11:14:54;;;;;;;;;;;;;;;5.67;100.00;100392.59;5072196;28;19935;-73
2022/12/23 11:17:29;;;;;;;;;;;;;;;5.69;100.00;100398.63;5059835;28;20035;-73
2022/12/23 11:20:09;;;;;;;;;;;;;;;5.71;100.00;100394.19;5070812;28;19951;-73
2022/12/23 11:22:35;;;;;;;;;;;;;;;5.71;100.00;100383.69;5088588;27;19928;-75
2022/12/23 11:25:19;;;;;;;;;;;;;;;5.72;100.00;100374.88;5071240;28;19981;-74
2022/12/23 11:27:44;;;;;;;;;;;;;;;5.72;100.00;100380.13;5078129;28;19935;-74
2022/12/23 11:30:16;;;;;;;;;;;;;;;5.70;100.00;100372.34;5078943;28;19931;-74
2022/12/23 11:32:42;;;;;;;;;;;;;;;5.71;100.00;100367.91;5067388;28;19978;-74
2022/12/23 11:35:18;;;;;;;;;;;;;;;5.69;100.00;100353.97;5065186;28;19930;-72
2022/12/23 11:37:44;;;;;;;;;;;;;;;5.69;100.00;100349.59;5075307;27;19927;-73
2022/12/23 11:40:19;;;;;;;;;;;;;;;5.67;100.00;100346.16;5066584;28;19935;-73
2022/12/23 11:42:44;;;;;;;;;;;;;;;5.66;100.00;100339.19;5052850;28;19927;-73
2022/12/23 11:45:19;;;;;;;;;;;;;;;5.65;100.00;100331.34;5071496;28;19971;-73
2022/12/23 11:47:44;;;;;;;;;;;;;;;5.62;100.00;100321.78;5060541;28;20359;-73
2022/12/23 11:50:19;;;;;;;;;;;;;;;5.62;100.00;100323.59;5066337;28;20453;-73
2022/12/23 11:52:48;;;;;;;;;;;;;;;5.60;100.00;100312.28;5076867;28;20306;-73
2022/12/23 11:55:21;;;;;;;;;;;;;;;5.60;100.00;100320.16;5078767;28;19923;-74
2022/12/23 11:57:47;;;;;;;;;;;;;;;5.57;100.00;100314.06;5060585;28;19930;-73
2022/12/23 12:00:21;;;;;;;;;;;;;;;5.55;100.00;100318.53;5055811;28;19923;-74
2022/12/23 12:02:47;;;;;;;;;;;;;;;5.53;100.00;100307.22;5072105;28;20375;-73
2022/12/23 12:05:48;;;;;;;;;;;;;;;5.54;100.00;100308.94;5049619;28;19985;-74
2022/12/23 12:08:14;;;;;;;;;;;;;;;5.56;100.00;100306.28;4993121;28;20427;-73
2022/12/23 12:10:39;;;;;;;;;;;;;;;5.59;100.00;100303.53;5037991;28;19924;-73
2022/12/23 12:13:17;;;;;;;;;;;;;;;5.62;100.00;100305.19;5045672;28;20340;-74
2022/12/23 12:15:43;;;;;;;;;;;;;;;5.63;100.00;100301.66;5075455;28;19936;-74
2022/12/23 12:18:10;;;;;;;;;;;;;;;5.65;100.00;100295.44;5058805;28;19935;-74
2022/12/23 12:20:38;;;;;;;;;;;;;;;5.63;100.00;100292.03;5060171;28;19932;-74
2022/12/23 12:23:09;;;;;;;;;;;;;;;5.61;100.00;100292.97;5055539;28;19924;-73
2022/12/23 12:25:40;;;;;;;;;;;;;;;5.58;100.00;100292.16;5072698;27;19932;-74
2022/12/23 12:28:08;;;;;;;;;;;;;;;5.57;100.00;100292.22;5070680;28;19931;-72
2022/12/23 12:30:36;;;;;;;;;;;;;;;5.55;100.00;100288.78;5051332;28;19931;-73
2022/12/23 12:33:04;;;;;;;;;;;;;;;5.56;100.00;100290.50;5070089;28;19975;-73
2022/12/23 12:35:49;;;;;;;;;;;;;;;5.55;100.00;100276.50;5057264;28;20749;-73
2022/12/23 12:38:35;;;;;;;;;;;;;;;5.55;100.00;100278.25;5080109;28;20446;-73
2022/12/23 12:41:21;;;;;;;;;;;;;;;5.56;100.00;100267.72;5081090;28;20048;-73
2022/12/23 12:44:16;;;;;;;;;;;;;;;5.57;100.00;100271.22;5075536;28;19927;-73
2022/12/23 12:46:41;;;;;;;;;;;;;;;5.56;100.00;100274.75;5061679;28;20087;-73
2022/12/23 12:49:10;;;;;;;;;;;;;;;5.55;100.00;100262.50;5064177;27;20403;-73
2022/12/23 12:51:41;;;;;;;;;;;;;;;5.56;100.00;100259.84;5078594;28;19939;-73
2022/12/23 12:54:14;;;;;;;;;;;;;;;5.56;100.00;100254.59;5074310;28;20217;-74
2022/12/23 12:56:42;;;;;;;;;;;;;;;5.57;100.00;100239.69;5060581;28;19924;-74
2022/12/23 12:59:11;;;;;;;;;;;;;;;5.56;100.00;100245.88;5053748;28;20903;-74
2022/12/23 13:01:36;;;;;;;;;;;;;;;5.58;100.00;100239.63;5073960;28;20386;-74
2022/12/23 13:04:02;;;;;;;;;;;;;;;5.61;100.00;100232.56;5055107;28;19931;-74
2022/12/23 13:06:34;;;;;;;;;;;;;;;5.62;100.00;100231.66;5055775;28;19955;-74